sensor_id;sensor_type;location;lat;lon;timestamp;temperature;humidity
56044;DHT22;41912;51.022;3.664;2023-04-23T00:01:13;11.80;99.90
56044;DHT22;41912;51.022;3.664;2023-04-23T00:03:41;11.80;99.90
56044;DHT22;41912;51.022;3.664;2023-04-23T00:06:08;11.80;99.90
56044;DHT22;41912;51.022;3.664;2023-04-23T00:08:41;11.80;99.90
56044;DHT22;41912;51.022;3.664;2023-04-23T00:11:07;11.80;99.90
56044;DHT22;41912;51.022;3.664;2023-04-23T00:13:34;11.80;99.90
56044;DHT22;41912;51.022;3.664;2023-04-23T00:16:00;11.80;99.90
56044;DHT22;41912;51.022;3.664;2023-04-23T00:18:26;11.80;99.90
56044;DHT22;41912;51.022;3.664;2023-04-23T00:20:51;11.90;99.90
56044;DHT22;41912;51.022;3.664;2023-04-23T00:23:17;11.90;99.90
56044;DHT22;41912;51.022;3.664;2023-04-23T00:25:43;11.90;99.90
56044;DHT22;41912;51.022;3.664;2023-04-23T00:28:08;11.80;99.90
56044;DHT22;41912;51.022;3.664;2023-04-23T00:30:34;11.70;99.90
56044;DHT22;41912;51.022;3.664;2023-04-23T00:33:00;11.70;99.90
56044;DHT22;41912;51.022;3.664;2023-04-23T00:35:25;11.70;99.90
56044;DHT22;41912;51.022;3.664;2023-04-23T00:37:51;11.70;99.90
56044;DHT22;41912;51.022;3.664;2023-04-23T00:40:17;11.70;99.90
56044;DHT22;41912;51.022;3.664;2023-04-23T00:42:42;11.70;99.90
56044;DHT22;41912;51.022;3.664;2023-04-23T00:45:09;11.70;99.90
56044;DHT22;41912;51.022;3.664;2023-04-23T00:47:35;11.70;99.90
56044;DHT22;41912;51.022;3.664;2023-04-23T00:50:01;11.70;99.90
56044;DHT22;41912;51.022;3.664;2023-04-23T00:52:27;11.70;99.90
56044;DHT22;41912;51.022;3.664;2023-04-23T00:54:54;11.80;99.90
56044;DHT22;41912;51.022;3.664;2023-04-23T00:57:21;11.80;99.90
56044;DHT22;41912;51.022;3.664;2023-04-23T00:59:47;11.80;99.90
56044;DHT22;41912;51.022;3.664;2023-04-23T01:02:13;11.80;99.90
56044;DHT22;41912;51.022;3.664;2023-04-23T01:04:41;11.80;99.90
56044;DHT22;41912;51.022;3.664;2023-04-23T01:07:08;11.80;99.90
56044;DHT22;41912;51.022;3.664;2023-04-23T01:09:34;11.70;99.90
56044;DHT22;41912;51.022;3.664;2023-04-23T01:12:00;11.60;99.90
56044;DHT22;41912;51.022;3.664;2023-04-23T01:14:27;11.60;99.90
56044;DHT22;41912;51.022;3.664;2023-04-23T01:16:52;11.60;99.90
56044;DHT22;41912;51.022;3.664;2023-04-23T01:19:18;11.60;99.90
56044;DHT22;41912;51.022;3.664;2023-04-23T01:21:44;11.50;99.90
56044;DHT22;41912;51.022;3.664;2023-04-23T01:24:10;11.50;99.90
56044;DHT22;41912;51.022;3.664;2023-04-23T01:26:37;11.50;99.90
56044;DHT22;41912;51.022;3.664;2023-04-23T01:29:03;11.40;99.90
56044;DHT22;41912;51.022;3.664;2023-04-23T01:31:30;11.40;99.90
56044;DHT22;41912;51.022;3.664;2023-04-23T01:33:57;11.40;99.90
56044;DHT22;41912;51.022;3.664;2023-04-23T01:36:24;11.40;99.90
56044;DHT22;41912;51.022;3.664;2023-04-23T01:38:52;11.30;99.90
56044;DHT22;41912;51.022;3.664;2023-04-23T01:41:18;11.30;99.90
56044;DHT22;41912;51.022;3.664;2023-04-23T01:43:47;11.20;99.90
56044;DHT22;41912;51.022;3.664;2023-04-23T01:46:13;11.20;99.90
56044;DHT22;41912;51.022;3.664;2023-04-23T01:48:38;11.10;99.90
56044;DHT22;41912;51.022;3.664;2023-04-23T01:51:04;11.10;99.90
56044;DHT22;41912;51.022;3.664;2023-04-23T01:53:30;11.10;99.90
56044;DHT22;41912;51.022;3.664;2023-04-23T01:55:56;11.00;99.90
56044;DHT22;41912;51.022;3.664;2023-04-23T01:58:22;11.10;99.90
56044;DHT22;41912;51.022;3.664;2023-04-23T02:00:49;11.10;99.90
56044;DHT22;41912;51.022;3.664;2023-04-23T02:03:15;11.10;99.90
56044;DHT22;41912;51.022;3.664;2023-04-23T02:05:41;11.10;99.90
56044;DHT22;41912;51.022;3.664;2023-04-23T02:08:07;11.20;99.90
56044;DHT22;41912;51.022;3.664;2023-04-23T02:10:33;11.20;99.90
56044;DHT22;41912;51.022;3.664;2023-04-23T02:12:59;11.20;99.90
56044;DHT22;41912;51.022;3.664;2023-04-23T02:15:25;11.20;99.90
56044;DHT22;41912;51.022;3.664;2023-04-23T02:17:51;11.20;99.90
56044;DHT22;41912;51.022;3.664;2023-04-23T02:20:17;11.10;99.90
56044;DHT22;41912;51.022;3.664;2023-04-23T02:22:44;11.20;99.90
56044;DHT22;41912;51.022;3.664;2023-04-23T02:25:10;11.20;99.90
56044;DHT22;41912;51.022;3.664;2023-04-23T02:27:36;11.10;99.90
56044;DHT22;41912;51.022;3.664;2023-04-23T02:30:02;11.10;99.90
56044;DHT22;41912;51.022;3.664;2023-04-23T02:32:28;11.10;99.90
56044;DHT22;41912;51.022;3.664;2023-04-23T02:34:54;11.10;99.90
56044;DHT22;41912;51.022;3.664;2023-04-23T02:37:20;11.10;99.90
56044;DHT22;41912;51.022;3.664;2023-04-23T02:39:46;11.10;99.90
56044;DHT22;41912;51.022;3.664;2023-04-23T02:42:12;11.20;99.90
56044;DHT22;41912;51.022;3.664;2023-04-23T02:44:38;11.20;99.90
56044;DHT22;41912;51.022;3.664;2023-04-23T02:47:03;11.20;99.90
56044;DHT22;41912;51.022;3.664;2023-04-23T02:49:29;11.10;99.90
56044;DHT22;41912;51.022;3.664;2023-04-23T02:51:55;11.20;99.90
56044;DHT22;41912;51.022;3.664;2023-04-23T02:54:20;11.10;99.90
56044;DHT22;41912;51.022;3.664;2023-04-23T02:56:46;11.10;99.90
56044;DHT22;41912;51.022;3.664;2023-04-23T02:59:12;11.10;99.90
56044;DHT22;41912;51.022;3.664;2023-04-23T03:01:37;11.10;99.90
56044;DHT22;41912;51.022;3.664;2023-04-23T03:04:03;11.00;99.90
56044;DHT22;41912;51.022;3.664;2023-04-23T03:06:29;11.00;99.90
56044;DHT22;41912;51.022;3.664;2023-04-23T03:08:56;10.90;99.90
56044;DHT22;41912;51.022;3.664;2023-04-23T03:11:21;10.80;99.90
56044;DHT22;41912;51.022;3.664;2023-04-23T03:13:47;10.80;99.90
56044;DHT22;41912;51.022;3.664;2023-04-23T03:16:13;10.80;99.90
56044;DHT22;41912;51.022;3.664;2023-04-23T03:18:39;10.80;99.90
56044;DHT22;41912;51.022;3.664;2023-04-23T03:21:04;10.80;99.90
56044;DHT22;41912;51.022;3.664;2023-04-23T03:23:30;10.90;99.90
56044;DHT22;41912;51.022;3.664;2023-04-23T03:25:56;10.90;99.90
56044;DHT22;41912;51.022;3.664;2023-04-23T03:28:22;10.80;99.90
56044;DHT22;41912;51.022;3.664;2023-04-23T03:30:48;10.90;99.90
56044;DHT22;41912;51.022;3.664;2023-04-23T03:33:14;10.80;99.90
56044;DHT22;41912;51.022;3.664;2023-04-23T03:35:39;10.90;99.90
56044;DHT22;41912;51.022;3.664;2023-04-23T03:38:05;10.90;99.90
56044;DHT22;41912;51.022;3.664;2023-04-23T03:40:30;10.80;99.90
56044;DHT22;41912;51.022;3.664;2023-04-23T03:42:56;10.80;99.90
56044;DHT22;41912;51.022;3.664;2023-04-23T03:45:22;10.80;99.90
56044;DHT22;41912;51.022;3.664;2023-04-23T03:47:48;10.80;99.90
56044;DHT22;41912;51.022;3.664;2023-04-23T03:50:14;10.80;99.90
56044;DHT22;41912;51.022;3.664;2023-04-23T03:52:41;10.80;99.90
56044;DHT22;41912;51.022;3.664;2023-04-23T03:55:08;10.70;99.90
56044;DHT22;41912;51.022;3.664;2023-04-23T03:57:34;10.70;99.90
56044;DHT22;41912;51.022;3.664;2023-04-23T04:00:00;10.80;99.90
56044;DHT22;41912;51.022;3.664;2023-04-23T04:02:26;10.80;99.90
56044;DHT22;41912;51.022;3.664;2023-04-23T04:04:52;10.80;99.90
56044;DHT22;41912;51.022;3.664;2023-04-23T04:07:19;10.90;99.90
56044;DHT22;41912;51.022;3.664;2023-04-23T04:09:45;10.80;99.90
56044;DHT22;41912;51.022;3.664;2023-04-23T04:12:11;10.80;99.90
56044;DHT22;41912;51.022;3.664;2023-04-23T04:14:37;10.80;99.90
56044;DHT22;41912;51.022;3.664;2023-04-23T04:17:03;10.80;99.90
56044;DHT22;41912;51.022;3.664;2023-04-23T04:19:28;10.80;99.90
56044;DHT22;41912;51.022;3.664;2023-04-23T04:21:54;10.80;99.90
56044;DHT22;41912;51.022;3.664;2023-04-23T04:24:20;10.80;99.90
56044;DHT22;41912;51.022;3.664;2023-04-23T04:26:48;10.80;99.90
56044;DHT22;41912;51.022;3.664;2023-04-23T04:29:13;10.80;99.90
56044;DHT22;41912;51.022;3.664;2023-04-23T04:31:39;10.70;99.90
56044;DHT22;41912;51.022;3.664;2023-04-23T04:34:05;10.80;99.90
56044;DHT22;41912;51.022;3.664;2023-04-23T04:36:31;10.80;99.90
56044;DHT22;41912;51.022;3.664;2023-04-23T04:38:57;10.80;99.90
56044;DHT22;41912;51.022;3.664;2023-04-23T04:41:26;10.80;99.90
56044;DHT22;41912;51.022;3.664;2023-04-23T04:43:52;10.80;99.90
56044;DHT22;41912;51.022;3.664;2023-04-23T04:46:22;10.80;99.90
56044;DHT22;41912;51.022;3.664;2023-04-23T04:48:47;10.80;99.90
56044;DHT22;41912;51.022;3.664;2023-04-23T04:51:13;10.80;99.90
56044;DHT22;41912;51.022;3.664;2023-04-23T04:53:39;10.80;99.90
56044;DHT22;41912;51.022;3.664;2023-04-23T04:56:04;10.80;99.90
56044;DHT22;41912;51.022;3.664;2023-04-23T04:58:30;10.80;99.90
56044;DHT22;41912;51.022;3.664;2023-04-23T05:00:58;10.90;99.90
56044;DHT22;41912;51.022;3.664;2023-04-23T05:03:24;10.90;99.90
56044;DHT22;41912;51.022;3.664;2023-04-23T05:05:50;10.90;99.90
56044;DHT22;41912;51.022;3.664;2023-04-23T05:08:17;10.90;99.90
56044;DHT22;41912;51.022;3.664;2023-04-23T05:10:46;11.00;99.90
56044;DHT22;41912;51.022;3.664;2023-04-23T05:13:11;11.00;99.90
56044;DHT22;41912;51.022;3.664;2023-04-23T05:15:37;11.00;99.90
56044;DHT22;41912;51.022;3.664;2023-04-23T05:18:04;11.10;99.90
56044;DHT22;41912;51.022;3.664;2023-04-23T05:20:29;11.10;99.90
56044;DHT22;41912;51.022;3.664;2023-04-23T05:22:55;11.10;99.90
56044;DHT22;41912;51.022;3.664;2023-04-23T05:25:24;11.10;99.90
56044;DHT22;41912;51.022;3.664;2023-04-23T05:27:50;11.10;99.90
56044;DHT22;41912;51.022;3.664;2023-04-23T05:30:15;11.10;99.90
56044;DHT22;41912;51.022;3.664;2023-04-23T05:32:41;11.20;99.90
56044;DHT22;41912;51.022;3.664;2023-04-23T05:35:07;11.30;99.90
56044;DHT22;41912;51.022;3.664;2023-04-23T05:37:33;11.30;99.90
56044;DHT22;41912;51.022;3.664;2023-04-23T05:39:59;11.40;99.90
56044;DHT22;41912;51.022;3.664;2023-04-23T05:42:27;11.40;99.90
56044;DHT22;41912;51.022;3.664;2023-04-23T05:44:52;11.40;99.90
56044;DHT22;41912;51.022;3.664;2023-04-23T05:47:18;11.50;99.90
56044;DHT22;41912;51.022;3.664;2023-04-23T05:49:44;11.60;99.90
56044;DHT22;41912;51.022;3.664;2023-04-23T05:52:10;11.60;99.90
56044;DHT22;41912;51.022;3.664;2023-04-23T05:54:36;11.60;99.90
56044;DHT22;41912;51.022;3.664;2023-04-23T05:57:02;11.60;99.90
56044;DHT22;41912;51.022;3.664;2023-04-23T05:59:28;11.60;99.90
56044;DHT22;41912;51.022;3.664;2023-04-23T06:01:54;11.70;99.90
56044;DHT22;41912;51.022;3.664;2023-04-23T06:04:20;11.70;99.90
56044;DHT22;41912;51.022;3.664;2023-04-23T06:06:45;11.80;99.90
56044;DHT22;41912;51.022;3.664;2023-04-23T06:09:11;11.80;99.90
56044;DHT22;41912;51.022;3.664;2023-04-23T06:11:36;11.90;99.90
56044;DHT22;41912;51.022;3.664;2023-04-23T06:14:03;11.90;99.90
56044;DHT22;41912;51.022;3.664;2023-04-23T06:16:28;11.90;99.90
56044;DHT22;41912;51.022;3.664;2023-04-23T06:18:54;12.00;99.90
56044;DHT22;41912;51.022;3.664;2023-04-23T06:21:23;12.00;99.90
56044;DHT22;41912;51.022;3.664;2023-04-23T06:23:49;12.00;99.90
56044;DHT22;41912;51.022;3.664;2023-04-23T06:26:15;12.00;99.90
56044;DHT22;41912;51.022;3.664;2023-04-23T06:28:41;12.10;99.90
56044;DHT22;41912;51.022;3.664;2023-04-23T06:31:08;12.10;99.90
56044;DHT22;41912;51.022;3.664;2023-04-23T06:33:34;12.20;99.90
56044;DHT22;41912;51.022;3.664;2023-04-23T06:36:01;12.20;99.90
56044;DHT22;41912;51.022;3.664;2023-04-23T06:38:27;12.30;99.90
56044;DHT22;41912;51.022;3.664;2023-04-23T06:40:53;12.40;99.90
56044;DHT22;41912;51.022;3.664;2023-04-23T06:43:19;12.40;99.90
56044;DHT22;41912;51.022;3.664;2023-04-23T06:45:44;12.50;99.90
56044;DHT22;41912;51.022;3.664;2023-04-23T06:48:10;12.60;99.90
56044;DHT22;41912;51.022;3.664;2023-04-23T06:50:36;12.60;99.90
56044;DHT22;41912;51.022;3.664;2023-04-23T06:53:01;12.70;99.90
56044;DHT22;41912;51.022;3.664;2023-04-23T06:55:27;12.70;99.90
56044;DHT22;41912;51.022;3.664;2023-04-23T06:57:54;12.70;99.90
56044;DHT22;41912;51.022;3.664;2023-04-23T07:00:20;12.80;99.90
56044;DHT22;41912;51.022;3.664;2023-04-23T07:02:46;12.80;99.90
56044;DHT22;41912;51.022;3.664;2023-04-23T07:05:12;12.90;99.90
56044;DHT22;41912;51.022;3.664;2023-04-23T07:07:38;12.90;99.90
56044;DHT22;41912;51.022;3.664;2023-04-23T07:10:05;13.00;99.90
56044;DHT22;41912;51.022;3.664;2023-04-23T07:12:31;13.10;99.90
56044;DHT22;41912;51.022;3.664;2023-04-23T07:14:57;13.20;99.90
56044;DHT22;41912;51.022;3.664;2023-04-23T07:17:22;13.20;99.90
56044;DHT22;41912;51.022;3.664;2023-04-23T07:19:48;13.30;99.90
56044;DHT22;41912;51.022;3.664;2023-04-23T07:22:13;13.30;99.90
56044;DHT22;41912;51.022;3.664;2023-04-23T07:24:39;13.30;99.90
56044;DHT22;41912;51.022;3.664;2023-04-23T07:27:05;13.40;99.90
56044;DHT22;41912;51.022;3.664;2023-04-23T07:29:31;13.50;99.90
56044;DHT22;41912;51.022;3.664;2023-04-23T07:31:57;13.60;99.90
56044;DHT22;41912;51.022;3.664;2023-04-23T07:34:22;13.70;99.90
56044;DHT22;41912;51.022;3.664;2023-04-23T07:36:48;13.70;99.90
56044;DHT22;41912;51.022;3.664;2023-04-23T07:39:14;13.70;99.90
56044;DHT22;41912;51.022;3.664;2023-04-23T07:41:40;13.70;99.90
56044;DHT22;41912;51.022;3.664;2023-04-23T07:44:06;13.70;99.90
56044;DHT22;41912;51.022;3.664;2023-04-23T07:46:31;13.70;99.90
56044;DHT22;41912;51.022;3.664;2023-04-23T07:48:57;13.80;99.90
56044;DHT22;41912;51.022;3.664;2023-04-23T07:51:22;13.80;99.90
56044;DHT22;41912;51.022;3.664;2023-04-23T07:53:51;13.90;99.90
56044;DHT22;41912;51.022;3.664;2023-04-23T07:56:19;13.90;99.90
56044;DHT22;41912;51.022;3.664;2023-04-23T07:58:46;13.90;99.90
56044;DHT22;41912;51.022;3.664;2023-04-23T08:01:11;13.90;99.90
56044;DHT22;41912;51.022;3.664;2023-04-23T08:03:37;13.90;99.90
56044;DHT22;41912;51.022;3.664;2023-04-23T08:06:03;14.00;99.90
56044;DHT22;41912;51.022;3.664;2023-04-23T08:08:29;14.00;99.90
56044;DHT22;41912;51.022;3.664;2023-04-23T08:10:55;14.00;99.90
56044;DHT22;41912;51.022;3.664;2023-04-23T08:13:20;14.10;99.90
56044;DHT22;41912;51.022;3.664;2023-04-23T08:15:46;14.20;99.90
56044;DHT22;41912;51.022;3.664;2023-04-23T08:18:13;14.40;99.90
56044;DHT22;41912;51.022;3.664;2023-04-23T08:20:39;14.40;99.90
56044;DHT22;41912;51.022;3.664;2023-04-23T08:23:05;14.50;99.90
56044;DHT22;41912;51.022;3.664;2023-04-23T08:25:31;14.60;99.90
56044;DHT22;41912;51.022;3.664;2023-04-23T08:27:57;14.70;99.90
56044;DHT22;41912;51.022;3.664;2023-04-23T08:30:23;14.80;99.90
56044;DHT22;41912;51.022;3.664;2023-04-23T08:32:50;14.70;99.90
56044;DHT22;41912;51.022;3.664;2023-04-23T08:35:18;14.80;99.90
56044;DHT22;41912;51.022;3.664;2023-04-23T08:37:44;14.70;99.90
56044;DHT22;41912;51.022;3.664;2023-04-23T08:40:10;14.80;99.90
56044;DHT22;41912;51.022;3.664;2023-04-23T08:42:42;14.90;99.90
56044;DHT22;41912;51.022;3.664;2023-04-23T08:45:09;14.90;99.90
56044;DHT22;41912;51.022;3.664;2023-04-23T08:47:38;15.00;99.90
56044;DHT22;41912;51.022;3.664;2023-04-23T08:50:11;15.00;99.90
56044;DHT22;41912;51.022;3.664;2023-04-23T08:52:40;15.00;99.90
56044;DHT22;41912;51.022;3.664;2023-04-23T08:55:07;15.10;99.90
56044;DHT22;41912;51.022;3.664;2023-04-23T08:57:36;15.10;99.90
56044;DHT22;41912;51.022;3.664;2023-04-23T09:00:03;15.20;99.90
56044;DHT22;41912;51.022;3.664;2023-04-23T09:02:33;15.20;99.90
56044;DHT22;41912;51.022;3.664;2023-04-23T09:05:02;15.10;99.90
56044;DHT22;41912;51.022;3.664;2023-04-23T09:07:28;15.20;99.90
56044;DHT22;41912;51.022;3.664;2023-04-23T09:09:54;15.20;99.90
56044;DHT22;41912;51.022;3.664;2023-04-23T09:12:21;15.20;99.90
56044;DHT22;41912;51.022;3.664;2023-04-23T09:14:49;15.20;99.90
56044;DHT22;41912;51.022;3.664;2023-04-23T09:17:16;15.30;99.90
56044;DHT22;41912;51.022;3.664;2023-04-23T09:19:42;15.30;99.90
56044;DHT22;41912;51.022;3.664;2023-04-23T09:22:09;15.40;99.90
56044;DHT22;41912;51.022;3.664;2023-04-23T09:24:35;15.40;99.90
56044;DHT22;41912;51.022;3.664;2023-04-23T09:27:00;15.40;99.90
56044;DHT22;41912;51.022;3.664;2023-04-23T09:29:27;15.40;99.90
56044;DHT22;41912;51.022;3.664;2023-04-23T09:32:07;15.50;99.90
56044;DHT22;41912;51.022;3.664;2023-04-23T09:34:37;15.40;99.90
56044;DHT22;41912;51.022;3.664;2023-04-23T09:37:04;15.40;99.90
56044;DHT22;41912;51.022;3.664;2023-04-23T09:39:33;15.30;99.90
56044;DHT22;41912;51.022;3.664;2023-04-23T09:42:03;15.20;99.90
56044;DHT22;41912;51.022;3.664;2023-04-23T09:44:31;15.40;99.90
56044;DHT22;41912;51.022;3.664;2023-04-23T09:47:05;15.50;99.90
56044;DHT22;41912;51.022;3.664;2023-04-23T09:49:44;15.50;99.90
56044;DHT22;41912;51.022;3.664;2023-04-23T09:52:11;15.60;99.90
56044;DHT22;41912;51.022;3.664;2023-04-23T09:54:36;15.60;99.90
56044;DHT22;41912;51.022;3.664;2023-04-23T09:57:04;15.60;99.90
56044;DHT22;41912;51.022;3.664;2023-04-23T09:59:33;15.60;99.90
56044;DHT22;41912;51.022;3.664;2023-04-23T10:02:05;15.60;99.90
56044;DHT22;41912;51.022;3.664;2023-04-23T10:04:32;15.60;99.90
56044;DHT22;41912;51.022;3.664;2023-04-23T10:07:00;15.60;99.90
56044;DHT22;41912;51.022;3.664;2023-04-23T10:09:27;15.60;99.90
56044;DHT22;41912;51.022;3.664;2023-04-23T10:11:58;15.60;99.90
56044;DHT22;41912;51.022;3.664;2023-04-23T10:14:27;15.60;99.90
56044;DHT22;41912;51.022;3.664;2023-04-23T10:16:57;15.50;99.90
56044;DHT22;41912;51.022;3.664;2023-04-23T10:19:24;15.40;99.90
56044;DHT22;41912;51.022;3.664;2023-04-23T10:22:04;15.40;99.90
56044;DHT22;41912;51.022;3.664;2023-04-23T10:24:35;15.30;99.90
56044;DHT22;41912;51.022;3.664;2023-04-23T10:27:03;15.30;99.90
56044;DHT22;41912;51.022;3.664;2023-04-23T10:29:32;15.30;99.90
56044;DHT22;41912;51.022;3.664;2023-04-23T10:32:00;15.30;99.90
56044;DHT22;41912;51.022;3.664;2023-04-23T10:34:28;15.30;99.90
56044;DHT22;41912;51.022;3.664;2023-04-23T10:36:55;15.30;99.90
56044;DHT22;41912;51.022;3.664;2023-04-23T10:39:26;15.40;99.90
56044;DHT22;41912;51.022;3.664;2023-04-23T10:41:53;15.40;99.90
56044;DHT22;41912;51.022;3.664;2023-04-23T10:44:20;15.50;99.90
56044;DHT22;41912;51.022;3.664;2023-04-23T10:46:53;15.50;99.90
56044;DHT22;41912;51.022;3.664;2023-04-23T10:49:22;15.70;99.90
56044;DHT22;41912;51.022;3.664;2023-04-23T10:51:48;15.90;99.90
56044;DHT22;41912;51.022;3.664;2023-04-23T10:54:15;16.00;99.90
56044;DHT22;41912;51.022;3.664;2023-04-23T10:56:42;16.00;99.90
56044;DHT22;41912;51.022;3.664;2023-04-23T10:59:20;16.00;99.90
56044;DHT22;41912;51.022;3.664;2023-04-23T11:01:47;16.00;99.90
56044;DHT22;41912;51.022;3.664;2023-04-23T11:04:24;16.00;99.90
56044;DHT22;41912;51.022;3.664;2023-04-23T11:06:52;16.10;99.90
56044;DHT22;41912;51.022;3.664;2023-04-23T11:09:42;16.10;99.90
56044;DHT22;41912;51.022;3.664;2023-04-23T11:14:53;16.20;99.90
56044;DHT22;41912;51.022;3.664;2023-04-23T11:20:19;16.20;99.90
56044;DHT22;41912;51.022;3.664;2023-04-23T11:22:49;16.00;99.90
56044;DHT22;41912;51.022;3.664;2023-04-23T11:25:25;16.00;99.90
56044;DHT22;41912;51.022;3.664;2023-04-23T11:27:54;15.90;99.90
56044;DHT22;41912;51.022;3.664;2023-04-23T11:30:28;15.90;99.90
56044;DHT22;41912;51.022;3.664;2023-04-23T11:32:55;15.80;99.90
56044;DHT22;41912;51.022;3.664;2023-04-23T11:35:23;15.70;99.90
56044;DHT22;41912;51.022;3.664;2023-04-23T11:37:53;15.60;99.90
56044;DHT22;41912;51.022;3.664;2023-04-23T11:40:19;15.70;99.90
56044;DHT22;41912;51.022;3.664;2023-04-23T11:42:48;15.70;99.90
56044;DHT22;41912;51.022;3.664;2023-04-23T11:45:23;15.70;99.90
56044;DHT22;41912;51.022;3.664;2023-04-23T11:47:50;15.70;99.90
56044;DHT22;41912;51.022;3.664;2023-04-23T11:50:30;15.70;99.90
56044;DHT22;41912;51.022;3.664;2023-04-23T11:53:20;15.70;99.90
56044;DHT22;41912;51.022;3.664;2023-04-23T11:55:43;15.70;99.90
56044;DHT22;41912;51.022;3.664;2023-04-23T11:58:16;15.70;99.90
56044;DHT22;41912;51.022;3.664;2023-04-23T12:00:43;15.70;99.90
56044;DHT22;41912;51.022;3.664;2023-04-23T12:03:08;15.60;99.90
56044;DHT22;41912;51.022;3.664;2023-04-23T12:05:38;15.60;99.90
56044;DHT22;41912;51.022;3.664;2023-04-23T12:08:16;15.60;99.90
56044;DHT22;41912;51.022;3.664;2023-04-23T12:10:51;15.70;99.90
56044;DHT22;41912;51.022;3.664;2023-04-23T12:13:30;15.80;99.90
56044;DHT22;41912;51.022;3.664;2023-04-23T12:15:59;15.60;99.90
56044;DHT22;41912;51.022;3.664;2023-04-23T12:18:30;15.60;99.90
56044;DHT22;41912;51.022;3.664;2023-04-23T12:21:06;15.70;99.90
56044;DHT22;41912;51.022;3.664;2023-04-23T12:23:32;15.70;99.90
56044;DHT22;41912;51.022;3.664;2023-04-23T12:26:00;15.70;99.90
56044;DHT22;41912;51.022;3.664;2023-04-23T12:28:28;15.70;99.90
56044;DHT22;41912;51.022;3.664;2023-04-23T12:30:58;15.60;99.90
56044;DHT22;41912;51.022;3.664;2023-04-23T12:33:28;15.60;99.90
56044;DHT22;41912;51.022;3.664;2023-04-23T12:35:54;15.60;99.90
56044;DHT22;41912;51.022;3.664;2023-04-23T12:40:48;15.60;99.90
56044;DHT22;41912;51.022;3.664;2023-04-23T12:43:13;15.60;99.90
56044;DHT22;41912;51.022;3.664;2023-04-23T12:45:39;15.60;99.90
56044;DHT22;41912;51.022;3.664;2023-04-23T12:48:05;15.60;99.90
56044;DHT22;41912;51.022;3.664;2023-04-23T12:50:30;15.50;99.90
56044;DHT22;41912;51.022;3.664;2023-04-23T12:52:56;15.50;99.90
56044;DHT22;41912;51.022;3.664;2023-04-23T12:55:22;15.50;99.90
56044;DHT22;41912;51.022;3.664;2023-04-23T12:57:47;15.40;99.90
56044;DHT22;41912;51.022;3.664;2023-04-23T13:00:13;15.40;99.90
56044;DHT22;41912;51.022;3.664;2023-04-23T13:02:39;15.40;99.90
56044;DHT22;41912;51.022;3.664;2023-04-23T13:05:05;15.40;99.90
56044;DHT22;41912;51.022;3.664;2023-04-23T13:07:30;15.30;99.90
56044;DHT22;41912;51.022;3.664;2023-04-23T13:09:56;15.30;99.90
56044;DHT22;41912;51.022;3.664;2023-04-23T13:12:23;15.20;99.90
56044;DHT22;41912;51.022;3.664;2023-04-23T13:14:49;15.20;99.90
56044;DHT22;41912;51.022;3.664;2023-04-23T13:17:15;15.20;99.90
56044;DHT22;41912;51.022;3.664;2023-04-23T13:19:41;15.20;99.90
56044;DHT22;41912;51.022;3.664;2023-04-23T13:22:06;15.10;99.90
56044;DHT22;41912;51.022;3.664;2023-04-23T13:24:32;15.10;99.90
56044;DHT22;41912;51.022;3.664;2023-04-23T13:26:58;15.10;99.90
56044;DHT22;41912;51.022;3.664;2023-04-23T13:29:24;15.10;99.90
56044;DHT22;41912;51.022;3.664;2023-04-23T13:31:52;15.20;99.90
56044;DHT22;41912;51.022;3.664;2023-04-23T13:34:18;15.20;99.90
56044;DHT22;41912;51.022;3.664;2023-04-23T13:36:44;15.20;99.90
56044;DHT22;41912;51.022;3.664;2023-04-23T13:39:09;15.20;99.90
56044;DHT22;41912;51.022;3.664;2023-04-23T13:41:38;15.10;99.90
56044;DHT22;41912;51.022;3.664;2023-04-23T13:44:04;15.20;99.90
56044;DHT22;41912;51.022;3.664;2023-04-23T13:46:30;15.20;99.90
56044;DHT22;41912;51.022;3.664;2023-04-23T13:48:56;15.10;99.90
56044;DHT22;41912;51.022;3.664;2023-04-23T13:51:21;15.00;99.90
56044;DHT22;41912;51.022;3.664;2023-04-23T13:53:47;15.10;99.90
56044;DHT22;41912;51.022;3.664;2023-04-23T13:56:12;15.10;99.90
56044;DHT22;41912;51.022;3.664;2023-04-23T13:58:38;15.00;99.90
56044;DHT22;41912;51.022;3.664;2023-04-23T14:01:07;15.10;99.90
56044;DHT22;41912;51.022;3.664;2023-04-23T14:03:33;15.10;99.90
56044;DHT22;41912;51.022;3.664;2023-04-23T14:05:58;15.10;99.90
56044;DHT22;41912;51.022;3.664;2023-04-23T14:08:24;15.10;99.90
56044;DHT22;41912;51.022;3.664;2023-04-23T14:10:50;15.20;99.90
56044;DHT22;41912;51.022;3.664;2023-04-23T14:13:16;15.20;99.90
56044;DHT22;41912;51.022;3.664;2023-04-23T14:15:42;15.30;99.90
56044;DHT22;41912;51.022;3.664;2023-04-23T14:18:07;15.40;99.90
56044;DHT22;41912;51.022;3.664;2023-04-23T14:20:33;15.40;99.90
56044;DHT22;41912;51.022;3.664;2023-04-23T14:23:10;15.50;99.90
56044;DHT22;41912;51.022;3.664;2023-04-23T14:26:02;15.60;99.90
56044;DHT22;41912;51.022;3.664;2023-04-23T14:28:40;15.60;99.90
56044;DHT22;41912;51.022;3.664;2023-04-23T14:31:09;15.60;99.90
56044;DHT22;41912;51.022;3.664;2023-04-23T14:33:34;15.60;99.90
56044;DHT22;41912;51.022;3.664;2023-04-23T14:36:00;15.60;99.90
56044;DHT22;41912;51.022;3.664;2023-04-23T14:38:26;15.60;99.90
56044;DHT22;41912;51.022;3.664;2023-04-23T14:40:51;15.60;99.90
56044;DHT22;41912;51.022;3.664;2023-04-23T14:43:17;15.50;99.90
56044;DHT22;41912;51.022;3.664;2023-04-23T14:45:43;15.50;99.90
56044;DHT22;41912;51.022;3.664;2023-04-23T14:48:09;15.60;99.90
56044;DHT22;41912;51.022;3.664;2023-04-23T14:50:35;15.70;99.90
56044;DHT22;41912;51.022;3.664;2023-04-23T14:53:00;15.70;99.90
56044;DHT22;41912;51.022;3.664;2023-04-23T14:55:28;15.80;99.90
56044;DHT22;41912;51.022;3.664;2023-04-23T14:57:54;15.80;99.90
56044;DHT22;41912;51.022;3.664;2023-04-23T15:00:21;15.80;99.90
56044;DHT22;41912;51.022;3.664;2023-04-23T15:02:47;15.80;99.90
56044;DHT22;41912;51.022;3.664;2023-04-23T15:05:12;15.80;99.90
56044;DHT22;41912;51.022;3.664;2023-04-23T15:07:40;15.80;99.90
56044;DHT22;41912;51.022;3.664;2023-04-23T15:10:07;15.70;99.90
56044;DHT22;41912;51.022;3.664;2023-04-23T15:12:52;15.80;99.90
56044;DHT22;41912;51.022;3.664;2023-04-23T15:15:26;15.80;99.90
56044;DHT22;41912;51.022;3.664;2023-04-23T15:17:52;15.80;99.90
56044;DHT22;41912;51.022;3.664;2023-04-23T15:20:18;15.70;99.90
56044;DHT22;41912;51.022;3.664;2023-04-23T15:22:44;15.70;99.90
56044;DHT22;41912;51.022;3.664;2023-04-23T15:25:12;15.70;99.90
56044;DHT22;41912;51.022;3.664;2023-04-23T15:27:37;15.60;99.90
56044;DHT22;41912;51.022;3.664;2023-04-23T15:30:04;15.60;99.90
56044;DHT22;41912;51.022;3.664;2023-04-23T15:32:30;15.60;99.90
56044;DHT22;41912;51.022;3.664;2023-04-23T15:34:56;15.60;99.90
56044;DHT22;41912;51.022;3.664;2023-04-23T15:37:21;15.70;99.90